Arlington, New Jersey
Current Conditions -  °F | °C
As of 2:51 PM on Wednesday 28 Jan 2015 (Local Time) from KEWR Reporting Station
Clear Clear  
Wind Chill: -5°   Ceiling: Unl
Heat Index:   Visibility: 10mi
Dew Point: -13°   Wind: 14mph
Humidity: 35%   Direction: 330°NNW
Pressure: 30.09"   Gusts: 25mph
Location:  40.7563°N, 74.1217°W
Report Text: KEWR 281951Z 33012G22KT 10SM CLR 01/M13 A3009 RMK AO2 SLP188 T00061133
Loading
Personal Weather Stations






























Interactive Weather Map New forecast layout! Learn more

10-Day Weather Forecast

Advertisements
Track Severe Weather on mobile